createdAt,value
2023-02-28T00:03:23.442Z,5.55
2023-02-28T00:07:26.910Z,4.90
2023-02-28T00:11:30.566Z,4.88
2023-02-28T00:15:35.513Z,3.45
2023-02-28T00:19:39.209Z,4.90
2023-02-28T00:23:42.395Z,5.35
2023-02-28T00:27:46.325Z,5.90
2023-02-28T00:31:51.446Z,4.47
2023-02-28T00:35:54.445Z,6.20
2023-02-28T00:39:57.725Z,4.38
2023-02-28T00:44:01.074Z,4.68
2023-02-28T00:48:07.466Z,5.13
2023-02-28T00:52:10.331Z,5.22
2023-02-28T00:56:13.710Z,5.70
2023-02-28T01:00:17.551Z,5.30
2023-02-28T01:04:22.366Z,4.78
2023-02-28T01:08:27.412Z,6.00
2023-02-28T01:12:31.125Z,5.05
2023-02-28T01:16:34.815Z,5.78
2023-02-28T01:20:40.317Z,5.68
2023-02-28T01:24:43.309Z,5.07
2023-02-28T01:28:46.354Z,4.32
2023-02-28T01:32:49.615Z,5.85
2023-02-28T01:36:54.575Z,5.70
2023-02-28T01:40:58.290Z,5.88
2023-02-28T01:45:19.502Z,5.78
2023-02-28T01:49:23.056Z,5.43
2023-02-28T01:53:34.610Z,4.65
2023-02-28T01:57:44.123Z,5.63
2023-02-28T02:01:47.117Z,5.18
2023-02-28T02:05:50.810Z,5.57
2023-02-28T02:10:13.656Z,6.18
2023-02-28T02:14:38.540Z,5.28
2023-02-28T02:18:49.218Z,5.93
2023-02-28T02:23:16.057Z,5.70
2023-02-28T02:27:26.964Z,5.47
2023-02-28T02:31:57.445Z,4.35
2023-02-28T02:36:10.005Z,6.43
2023-02-28T02:44:25.173Z,5.93
2023-02-28T02:48:33.235Z,6.28
2023-02-28T02:52:44.829Z,5.10
2023-02-28T02:56:49.873Z,3.83
2023-02-28T03:00:57.353Z,7.88
2023-02-28T03:05:03.984Z,6.05
2023-02-28T03:09:08.531Z,6.28
2023-02-28T03:13:35.777Z,5.90
2023-02-28T03:17:59.400Z,5.35
2023-02-28T03:22:16.507Z,5.78
2023-02-28T03:26:25.236Z,6.13
2023-02-28T03:30:36.956Z,6.07
2023-02-28T03:34:44.966Z,5.47
2023-02-28T03:38:55.325Z,5.00
2023-02-28T03:43:04.118Z,7.18
2023-02-28T03:47:13.733Z,5.97
2023-02-28T03:51:20.698Z,5.28
2023-02-28T03:55:24.363Z,7.00
2023-02-28T03:59:33.940Z,5.65
2023-02-28T04:03:38.484Z,6.97
2023-02-28T04:07:42.198Z,5.25
2023-02-28T04:11:48.070Z,6.63
2023-02-28T04:15:53.488Z,7.68
2023-02-28T04:19:58.654Z,8.00
2023-02-28T04:24:01.956Z,7.40
2023-02-28T04:28:05.063Z,7.75
2023-02-28T04:32:09.822Z,7.88
2023-02-28T04:36:13.599Z,7.97
2023-02-28T04:40:17.015Z,7.85
2023-02-28T04:44:20.754Z,7.40
2023-02-28T04:48:26.057Z,6.93
2023-02-28T04:52:30.648Z,6.75
2023-02-28T04:56:33.742Z,5.72
2023-02-28T05:00:37.145Z,6.45
2023-02-28T05:04:42.048Z,7.93
2023-02-28T05:08:45.358Z,7.57
2023-02-28T05:12:49.574Z,7.53
2023-02-28T05:16:52.870Z,8.85
2023-02-28T05:20:57.964Z,7.20
2023-02-28T05:25:01.015Z,6.63
2023-02-28T05:29:04.767Z,8.35
2023-02-28T05:33:08.117Z,6.88
2023-02-28T05:37:15.530Z,5.45
2023-02-28T05:41:20.339Z,7.10
2023-02-28T05:45:23.718Z,8.85
2023-02-28T05:49:26.816Z,6.63
2023-02-28T05:53:32.158Z,6.25
2023-02-28T05:57:35.430Z,7.30
2023-02-28T06:01:40.477Z,7.05
2023-02-28T06:05:43.981Z,7.10
2023-02-28T06:09:50.118Z,6.50
2023-02-28T06:13:56.539Z,7.55
2023-02-28T06:18:00.880Z,8.00
2023-02-28T06:22:03.941Z,6.13
2023-02-28T06:26:09.839Z,6.70
2023-02-28T06:30:13.875Z,6.63
2023-02-28T06:34:17.372Z,6.72
2023-02-28T06:38:21.189Z,6.35
2023-02-28T06:42:30.058Z,6.25
2023-02-28T06:46:33.194Z,7.97
2023-02-28T06:50:36.265Z,8.38
2023-02-28T06:54:39.948Z,9.73
2023-02-28T06:58:45.016Z,8.65
2023-02-28T07:02:48.595Z,6.80
2023-02-28T07:06:51.794Z,7.18
2023-02-28T07:10:56.152Z,7.93
2023-02-28T07:15:00.728Z,7.15
2023-02-28T07:19:04.052Z,7.85
2023-02-28T07:23:07.409Z,8.48
2023-02-28T07:27:10.792Z,6.88
2023-02-28T07:31:17.338Z,7.20
2023-02-28T07:35:20.361Z,7.35
2023-02-28T07:39:24.954Z,7.07
2023-02-28T07:43:28.092Z,7.22
2023-02-28T07:47:33.821Z,7.18
2023-02-28T07:51:36.938Z,6.80
2023-02-28T07:55:39.798Z,7.20
2023-02-28T07:59:44.730Z,7.35
2023-02-28T08:03:50.343Z,6.97
2023-02-28T08:07:54.685Z,6.97
2023-02-28T08:11:58.055Z,7.85
2023-02-28T08:16:04.750Z,6.50
2023-02-28T08:20:11.413Z,6.53
2023-02-28T08:24:14.729Z,7.30
2023-02-28T08:28:17.846Z,7.20
2023-02-28T08:32:29.929Z,5.97
2023-02-28T08:36:35.493Z,6.63
2023-02-28T08:40:38.708Z,6.32
2023-02-28T08:44:42.078Z,5.82
2023-02-28T08:48:46.051Z,6.25
2023-02-28T08:52:51.052Z,6.50
2023-02-28T08:56:54.363Z,7.28
2023-02-28T09:00:57.685Z,7.85
2023-02-28T09:05:01.561Z,7.10
2023-02-28T09:09:08.786Z,5.95
2023-02-28T09:13:11.984Z,5.90
2023-02-28T09:17:14.899Z,7.57
2023-02-28T09:21:20.702Z,6.25
2023-02-28T09:25:25.424Z,6.25
2023-02-28T09:29:28.415Z,7.93
2023-02-28T09:33:31.570Z,6.32
2023-02-28T09:37:34.781Z,6.45
2023-02-28T09:47:34.801Z,6.28
2023-02-28T09:51:47.108Z,6.43
2023-02-28T09:55:55.933Z,6.28
2023-02-28T10:00:11.852Z,7.47
2023-02-28T10:04:26.558Z,7.78
2023-02-28T10:08:34.412Z,6.38
2023-02-28T10:12:43.040Z,6.07
2023-02-28T10:16:53.147Z,6.50
2023-02-28T10:20:58.792Z,6.63
2023-02-28T10:25:06.027Z,7.40
2023-02-28T10:29:11.204Z,7.00
2023-02-28T10:33:22.361Z,5.97
2023-02-28T10:37:27.193Z,6.18
2023-02-28T10:41:35.993Z,5.45
2023-02-28T10:45:39.379Z,6.47
2023-02-28T10:49:50.072Z,6.88
2023-02-28T10:54:01.352Z,5.80
2023-02-28T10:58:05.298Z,4.85
2023-02-28T11:06:43.100Z,6.30
2023-02-28T11:10:50.689Z,6.15
2023-02-28T11:14:57.015Z,7.47
2023-02-28T11:19:01.328Z,7.47
2023-02-28T11:23:06.224Z,5.63
2023-02-28T11:27:28.211Z,6.57
2023-02-28T11:31:31.904Z,5.72
2023-02-28T11:35:40.897Z,5.63
2023-02-28T11:39:44.150Z,7.47
2023-02-28T11:44:04.157Z,6.40
2023-02-28T11:48:16.864Z,6.68
2023-02-28T11:52:28.984Z,6.30
2023-02-28T11:56:35.850Z,6.10
2023-02-28T12:00:57.174Z,5.70
2023-02-28T12:05:20.533Z,6.95
2023-02-28T12:09:49.967Z,7.45
2023-02-28T12:14:06.206Z,6.68
2023-02-28T12:18:37.271Z,5.82
2023-02-28T12:22:48.832Z,7.25
2023-02-28T12:26:55.162Z,5.90
2023-02-28T12:31:03.701Z,7.57
2023-02-28T12:35:16.074Z,5.55
2023-02-28T12:39:25.451Z,6.60
2023-02-28T12:43:35.359Z,6.57
2023-02-28T12:47:40.534Z,6.22
2023-02-28T12:51:47.059Z,6.25
2023-02-28T12:55:55.481Z,6.88
2023-02-28T13:00:02.019Z,7.00
2023-02-28T13:04:44.763Z,7.47
2023-02-28T13:09:03.535Z,7.00
2023-02-28T13:13:06.441Z,6.93
2023-02-28T13:17:15.109Z,8.10
2023-02-28T13:21:26.992Z,7.22
2023-02-28T13:25:59.057Z,6.20
2023-02-28T13:30:03.341Z,5.47
2023-02-28T13:34:18.639Z,7.97
2023-02-28T13:38:33.968Z,6.30
2023-02-28T13:42:51.419Z,6.45
2023-02-28T13:47:29.837Z,6.93
2023-02-28T13:51:44.148Z,7.22
2023-02-28T13:55:54.425Z,6.68
2023-02-28T14:00:19.263Z,5.72
2023-02-28T14:04:54.148Z,7.85
2023-02-28T14:09:00.919Z,7.80
2023-02-28T14:13:14.092Z,7.97
2023-02-28T14:17:19.723Z,6.85
2023-02-28T14:21:27.270Z,6.22
2023-02-28T14:25:39.443Z,7.30
2023-02-28T14:30:06.048Z,6.15
2023-02-28T14:34:28.214Z,7.70
2023-02-28T14:38:34.833Z,7.63
2023-02-28T14:42:42.844Z,7.97
2023-02-28T14:46:48.161Z,7.15
2023-02-28T14:50:55.081Z,6.85
2023-02-28T14:55:01.014Z,7.82
2023-02-28T14:59:04.343Z,7.60
2023-02-28T15:03:21.369Z,6.35
2023-02-28T15:07:29.620Z,7.47
2023-02-28T15:16:01.200Z,6.88
2023-02-28T15:24:25.219Z,7.90
2023-02-28T15:28:28.432Z,7.35
2023-02-28T15:32:36.822Z,7.28
2023-02-28T15:36:40.079Z,6.90
2023-02-28T15:40:46.898Z,6.93
2023-02-28T15:44:50.271Z,8.38
2023-02-28T15:48:57.246Z,8.48
2023-02-28T15:53:00.377Z,9.02
2023-02-28T15:57:09.999Z,8.25
2023-02-28T16:01:23.315Z,7.63
2023-02-28T16:05:33.331Z,7.32
2023-02-28T16:09:38.699Z,8.75
2023-02-28T16:13:43.820Z,7.75
2023-02-28T16:17:47.877Z,7.07
2023-02-28T16:21:52.126Z,6.70
2023-02-28T16:25:55.080Z,7.95
2023-02-28T16:30:07.827Z,7.20
2023-02-28T16:34:11.200Z,7.97
2023-02-28T16:38:14.933Z,6.30
2023-02-28T16:42:23.337Z,7.80
2023-02-28T16:46:30.804Z,7.65
2023-02-28T16:50:39.769Z,6.70
2023-02-28T16:54:44.124Z,7.97
2023-02-28T16:58:47.902Z,7.93
2023-02-28T17:02:53.149Z,7.60
2023-02-28T17:06:56.205Z,7.60
2023-02-28T17:11:00.041Z,7.20
2023-02-28T17:15:03.237Z,8.27
2023-02-28T17:19:09.614Z,7.72
2023-02-28T17:23:12.667Z,6.70
2023-02-28T17:27:15.856Z,7.60
2023-02-28T17:31:19.321Z,7.43
2023-02-28T17:35:24.516Z,6.78
2023-02-28T17:39:28.121Z,8.35
2023-02-28T17:43:31.379Z,6.50
2023-02-28T17:47:34.370Z,7.47
2023-02-28T17:51:39.533Z,7.53
2023-02-28T17:55:42.881Z,7.78
2023-02-28T17:59:46.366Z,8.80
2023-02-28T18:03:49.668Z,6.93
2023-02-28T18:07:55.417Z,7.60
2023-02-28T18:11:58.693Z,7.55
2023-02-28T18:16:01.707Z,7.75
2023-02-28T18:20:07.006Z,7.75
2023-02-28T18:24:12.459Z,6.43
2023-02-28T18:28:15.580Z,7.82
2023-02-28T18:32:19.047Z,7.40
2023-02-28T18:36:24.030Z,7.97
2023-02-28T18:40:28.431Z,8.85
2023-02-28T18:44:33.726Z,7.32
2023-02-28T18:48:37.254Z,7.40
2023-02-28T18:52:41.148Z,6.50
2023-02-28T18:56:46.015Z,6.35
2023-02-28T19:00:49.554Z,7.38
2023-02-28T19:04:52.822Z,8.13
2023-02-28T19:08:56.993Z,7.38
2023-02-28T19:13:01.957Z,6.88
2023-02-28T19:17:05.277Z,8.65
2023-02-28T19:21:10.741Z,8.10
2023-02-28T19:25:13.695Z,7.43
2023-02-28T19:29:18.262Z,7.25
2023-02-28T19:33:21.900Z,8.18
2023-02-28T19:37:27.587Z,7.13
2023-02-28T19:41:30.732Z,7.60
2023-02-28T19:45:37.292Z,8.07
2023-02-28T19:49:40.312Z,8.25
2023-02-28T19:53:45.210Z,10.20
2023-02-28T19:57:48.138Z,8.52
2023-02-28T20:01:55.238Z,7.03
2023-02-28T20:06:02.748Z,7.97
2023-02-28T20:10:07.883Z,7.13
2023-02-28T20:14:13.522Z,7.15
2023-02-28T20:18:18.896Z,8.45
2023-02-28T20:22:21.760Z,8.32
2023-02-28T20:26:24.969Z,8.10
2023-02-28T20:30:28.200Z,7.78
2023-02-28T20:34:32.904Z,10.35
2023-02-28T20:38:37.781Z,8.00
2023-02-28T20:42:40.984Z,9.95
2023-02-28T20:46:43.914Z,7.38
2023-02-28T20:50:51.787Z,9.00
2023-02-28T20:54:54.698Z,8.25
2023-02-28T20:58:58.738Z,8.38
2023-02-28T21:03:01.667Z,8.07
2023-02-28T21:07:06.452Z,9.45
2023-02-28T21:11:10.548Z,6.78
2023-02-28T21:15:13.834Z,7.82
2023-02-28T21:19:18.657Z,9.77
2023-02-28T21:23:25.009Z,7.80
2023-02-28T21:27:28.150Z,8.95
2023-02-28T21:31:34.696Z,8.02
2023-02-28T21:35:38.982Z,7.85
2023-02-28T21:39:43.228Z,9.00
2023-02-28T21:43:48.272Z,9.88
2023-02-28T21:47:51.470Z,9.85
2023-02-28T21:51:54.856Z,9.77
2023-02-28T21:56:02.987Z,9.07
2023-02-28T22:00:07.680Z,9.15
2023-02-28T22:04:21.738Z,9.13
2023-02-28T22:08:24.634Z,9.93
2023-02-28T22:12:31.234Z,7.47
2023-02-28T22:16:50.151Z,8.25
2023-02-28T22:20:55.770Z,7.55
2023-02-28T22:24:59.793Z,8.48
2023-02-28T22:29:05.833Z,8.30
2023-02-28T22:33:08.760Z,9.70
2023-02-28T22:37:12.319Z,7.85
2023-02-28T22:41:16.043Z,8.65
2023-02-28T22:45:20.728Z,6.78
2023-02-28T22:49:24.501Z,8.02
2023-02-28T22:53:27.681Z,8.82
2023-02-28T22:57:31.285Z,7.30
2023-02-28T23:01:36.265Z,7.75
2023-02-28T23:05:39.495Z,6.75
2023-02-28T23:09:42.454Z,8.60
2023-02-28T23:13:46.901Z,7.38
2023-02-28T23:17:52.172Z,7.93
2023-02-28T23:21:55.207Z,9.07
2023-02-28T23:25:58.698Z,8.50
2023-02-28T23:30:03.067Z,8.27
2023-02-28T23:34:07.905Z,7.90
2023-02-28T23:38:15.120Z,7.65
2023-02-28T23:42:18.246Z,8.43
2023-02-28T23:46:22.276Z,9.57
2023-02-28T23:50:26.833Z,9.15
2023-02-28T23:54:30.310Z,7.68
2023-02-28T23:58:33.538Z,7.30
